sensor_id;sensor_type;location;lat;lon;timestamp;P1;durP1;ratioP1;P2;durP2;ratioP2
2610;SDS011;5612;51.134;17.058;2023-05-29T00:00:55;5.50;;;4.40;;
2610;SDS011;5612;51.134;17.058;2023-05-29T00:03:26;6.53;;;4.43;;
2610;SDS011;5612;51.134;17.058;2023-05-29T00:06:01;5.80;;;5.13;;
2610;SDS011;5612;51.134;17.058;2023-05-29T00:08:31;5.33;;;4.47;;
2610;SDS011;5612;51.134;17.058;2023-05-29T00:11:00;8.47;;;5.27;;
2610;SDS011;5612;51.134;17.058;2023-05-29T00:13:30;5.70;;;3.87;;
2610;SDS011;5612;51.134;17.058;2023-05-29T00:16:00;4.90;;;4.40;;
2610;SDS011;5612;51.134;17.058;2023-05-29T00:18:31;7.70;;;5.20;;
2610;SDS011;5612;51.134;17.058;2023-05-29T00:21:14;5.37;;;4.20;;
2610;SDS011;5612;51.134;17.058;2023-05-29T00:23:43;9.90;;;5.60;;
2610;SDS011;5612;51.134;17.058;2023-05-29T00:26:12;5.40;;;4.90;;
2610;SDS011;5612;51.134;17.058;2023-05-29T00:28:45;8.03;;;5.00;;
2610;SDS011;5612;51.134;17.058;2023-05-29T00:31:14;6.53;;;5.80;;
2610;SDS011;5612;51.134;17.058;2023-05-29T00:33:43;8.00;;;4.90;;
2610;SDS011;5612;51.134;17.058;2023-05-29T00:36:12;6.57;;;4.70;;
2610;SDS011;5612;51.134;17.058;2023-05-29T00:38:40;5.93;;;5.27;;
2610;SDS011;5612;51.134;17.058;2023-05-29T00:41:12;8.10;;;5.23;;
2610;SDS011;5612;51.134;17.058;2023-05-29T00:43:42;5.57;;;4.90;;
2610;SDS011;5612;51.134;17.058;2023-05-29T00:46:13;5.50;;;4.90;;
2610;SDS011;5612;51.134;17.058;2023-05-29T00:48:43;5.10;;;4.43;;
2610;SDS011;5612;51.134;17.058;2023-05-29T00:51:13;9.03;;;5.73;;
2610;SDS011;5612;51.134;17.058;2023-05-29T00:53:43;7.17;;;5.17;;
2610;SDS011;5612;51.134;17.058;2023-05-29T00:56:13;5.47;;;4.97;;
2610;SDS011;5612;51.134;17.058;2023-05-29T00:58:44;5.83;;;4.80;;
2610;SDS011;5612;51.134;17.058;2023-05-29T01:01:13;6.73;;;6.03;;
2610;SDS011;5612;51.134;17.058;2023-05-29T01:03:43;5.93;;;5.43;;
2610;SDS011;5612;51.134;17.058;2023-05-29T01:06:15;6.27;;;5.17;;
2610;SDS011;5612;51.134;17.058;2023-05-29T01:08:44;7.70;;;6.00;;
2610;SDS011;5612;51.134;17.058;2023-05-29T01:11:17;7.40;;;6.00;;
2610;SDS011;5612;51.134;17.058;2023-05-29T01:13:55;7.87;;;7.00;;
2610;SDS011;5612;51.134;17.058;2023-05-29T01:16:31;7.83;;;7.07;;
2610;SDS011;5612;51.134;17.058;2023-05-29T01:19:09;7.80;;;7.10;;
2610;SDS011;5612;51.134;17.058;2023-05-29T01:21:49;8.13;;;7.43;;
2610;SDS011;5612;51.134;17.058;2023-05-29T01:24:30;8.17;;;6.73;;
2610;SDS011;5612;51.134;17.058;2023-05-29T01:27:07;7.00;;;6.30;;
2610;SDS011;5612;51.134;17.058;2023-05-29T01:29:39;6.50;;;5.30;;
2610;SDS011;5612;51.134;17.058;2023-05-29T01:32:10;6.90;;;6.20;;
2610;SDS011;5612;51.134;17.058;2023-05-29T01:34:41;5.40;;;4.90;;
2610;SDS011;5612;51.134;17.058;2023-05-29T01:37:10;5.40;;;4.90;;
2610;SDS011;5612;51.134;17.058;2023-05-29T01:39:39;5.67;;;4.73;;
2610;SDS011;5612;51.134;17.058;2023-05-29T01:42:10;5.80;;;5.10;;
2610;SDS011;5612;51.134;17.058;2023-05-29T01:44:40;7.23;;;5.00;;
2610;SDS011;5612;51.134;17.058;2023-05-29T01:47:09;6.17;;;5.57;;
2610;SDS011;5612;51.134;17.058;2023-05-29T01:49:38;9.10;;;5.57;;
2610;SDS011;5612;51.134;17.058;2023-05-29T01:52:09;5.87;;;5.17;;
2610;SDS011;5612;51.134;17.058;2023-05-29T01:54:38;6.07;;;5.07;;
2610;SDS011;5612;51.134;17.058;2023-05-29T01:57:07;8.03;;;5.73;;
2610;SDS011;5612;51.134;17.058;2023-05-29T01:59:37;5.13;;;4.73;;
2610;SDS011;5612;51.134;17.058;2023-05-29T02:02:07;6.73;;;4.43;;
2610;SDS011;5612;51.134;17.058;2023-05-29T02:04:36;5.23;;;4.70;;
2610;SDS011;5612;51.134;17.058;2023-05-29T02:07:06;5.73;;;5.10;;
2610;SDS011;5612;51.134;17.058;2023-05-29T02:09:34;5.87;;;4.37;;
2610;SDS011;5612;51.134;17.058;2023-05-29T02:12:04;6.13;;;5.53;;
2610;SDS011;5612;51.134;17.058;2023-05-29T02:14:34;4.83;;;4.40;;
2610;SDS011;5612;51.134;17.058;2023-05-29T02:17:05;5.40;;;4.40;;
2610;SDS011;5612;51.134;17.058;2023-05-29T02:19:34;5.90;;;4.70;;
2610;SDS011;5612;51.134;17.058;2023-05-29T02:22:03;7.23;;;5.30;;
2610;SDS011;5612;51.134;17.058;2023-05-29T02:24:32;9.10;;;5.47;;
2610;SDS011;5612;51.134;17.058;2023-05-29T02:27:01;7.33;;;5.47;;
2610;SDS011;5612;51.134;17.058;2023-05-29T02:29:30;8.17;;;6.03;;
2610;SDS011;5612;51.134;17.058;2023-05-29T02:31:59;9.33;;;5.70;;
2610;SDS011;5612;51.134;17.058;2023-05-29T02:34:29;7.47;;;5.70;;
2610;SDS011;5612;51.134;17.058;2023-05-29T02:36:58;6.43;;;5.80;;
2610;SDS011;5612;51.134;17.058;2023-05-29T02:39:27;7.80;;;6.27;;
2610;SDS011;5612;51.134;17.058;2023-05-29T02:41:56;7.17;;;6.00;;
2610;SDS011;5612;51.134;17.058;2023-05-29T02:44:25;10.70;;;6.00;;
2610;SDS011;5612;51.134;17.058;2023-05-29T02:46:54;6.90;;;6.20;;
2610;SDS011;5612;51.134;17.058;2023-05-29T02:49:23;8.40;;;6.70;;
2610;SDS011;5612;51.134;17.058;2023-05-29T02:51:53;7.70;;;6.43;;
2610;SDS011;5612;51.134;17.058;2023-05-29T02:54:23;11.90;;;6.77;;
2610;SDS011;5612;51.134;17.058;2023-05-29T02:56:53;10.30;;;7.37;;
2610;SDS011;5612;51.134;17.058;2023-05-29T02:59:22;11.27;;;7.00;;
2610;SDS011;5612;51.134;17.058;2023-05-29T03:01:51;8.73;;;6.33;;
2610;SDS011;5612;51.134;17.058;2023-05-29T03:04:21;8.20;;;6.60;;
2610;SDS011;5612;51.134;17.058;2023-05-29T03:06:50;9.50;;;7.10;;
2610;SDS011;5612;51.134;17.058;2023-05-29T03:09:21;8.00;;;7.10;;
2610;SDS011;5612;51.134;17.058;2023-05-29T03:11:50;17.00;;;7.23;;
2610;SDS011;5612;51.134;17.058;2023-05-29T03:14:19;9.30;;;6.10;;
2610;SDS011;5612;51.134;17.058;2023-05-29T03:16:48;6.37;;;5.50;;
2610;SDS011;5612;51.134;17.058;2023-05-29T03:19:17;6.47;;;5.83;;
2610;SDS011;5612;51.134;17.058;2023-05-29T03:21:46;8.17;;;6.27;;
2610;SDS011;5612;51.134;17.058;2023-05-29T03:24:15;7.33;;;5.93;;
2610;SDS011;5612;51.134;17.058;2023-05-29T03:26:45;7.97;;;6.50;;
2610;SDS011;5612;51.134;17.058;2023-05-29T03:29:14;6.30;;;5.67;;
2610;SDS011;5612;51.134;17.058;2023-05-29T03:31:44;6.90;;;5.70;;
2610;SDS011;5612;51.134;17.058;2023-05-29T03:34:13;8.60;;;7.53;;
2610;SDS011;5612;51.134;17.058;2023-05-29T03:36:42;12.13;;;6.70;;
2610;SDS011;5612;51.134;17.058;2023-05-29T03:39:13;9.07;;;5.80;;
2610;SDS011;5612;51.134;17.058;2023-05-29T03:41:42;6.77;;;6.10;;
2610;SDS011;5612;51.134;17.058;2023-05-29T03:44:12;11.30;;;5.90;;
2610;SDS011;5612;51.134;17.058;2023-05-29T03:46:41;5.80;;;5.10;;
2610;SDS011;5612;51.134;17.058;2023-05-29T03:49:10;8.50;;;6.37;;
2610;SDS011;5612;51.134;17.058;2023-05-29T03:51:39;6.33;;;5.57;;
2610;SDS011;5612;51.134;17.058;2023-05-29T03:54:08;7.70;;;5.00;;
2610;SDS011;5612;51.134;17.058;2023-05-29T03:56:37;7.87;;;6.20;;
2610;SDS011;5612;51.134;17.058;2023-05-29T03:59:05;9.27;;;5.60;;
2610;SDS011;5612;51.134;17.058;2023-05-29T04:01:36;5.70;;;5.10;;
2610;SDS011;5612;51.134;17.058;2023-05-29T04:04:05;7.63;;;5.67;;
2610;SDS011;5612;51.134;17.058;2023-05-29T04:06:34;9.13;;;6.57;;
2610;SDS011;5612;51.134;17.058;2023-05-29T04:09:05;7.30;;;6.13;;
2610;SDS011;5612;51.134;17.058;2023-05-29T04:11:35;6.60;;;5.60;;
2610;SDS011;5612;51.134;17.058;2023-05-29T04:14:05;8.33;;;6.10;;
2610;SDS011;5612;51.134;17.058;2023-05-29T04:16:35;6.73;;;5.70;;
2610;SDS011;5612;51.134;17.058;2023-05-29T04:19:05;6.80;;;6.13;;
2610;SDS011;5612;51.134;17.058;2023-05-29T04:21:33;6.63;;;5.70;;
2610;SDS011;5612;51.134;17.058;2023-05-29T04:24:03;9.30;;;5.47;;
2610;SDS011;5612;51.134;17.058;2023-05-29T04:26:32;5.47;;;5.07;;
2610;SDS011;5612;51.134;17.058;2023-05-29T04:29:01;6.80;;;5.93;;
2610;SDS011;5612;51.134;17.058;2023-05-29T04:31:30;7.30;;;6.40;;
2610;SDS011;5612;51.134;17.058;2023-05-29T04:34:01;7.23;;;6.00;;
2610;SDS011;5612;51.134;17.058;2023-05-29T04:36:31;6.23;;;5.73;;
2610;SDS011;5612;51.134;17.058;2023-05-29T04:39:00;5.87;;;4.93;;
2610;SDS011;5612;51.134;17.058;2023-05-29T04:41:29;8.93;;;4.90;;
2610;SDS011;5612;51.134;17.058;2023-05-29T04:43:58;5.53;;;4.87;;
2610;SDS011;5612;51.134;17.058;2023-05-29T04:46:27;13.30;;;6.03;;
2610;SDS011;5612;51.134;17.058;2023-05-29T04:48:56;8.20;;;5.60;;
2610;SDS011;5612;51.134;17.058;2023-05-29T04:51:27;6.03;;;5.40;;
2610;SDS011;5612;51.134;17.058;2023-05-29T04:53:56;7.57;;;5.70;;
2610;SDS011;5612;51.134;17.058;2023-05-29T04:56:25;8.60;;;5.50;;
2610;SDS011;5612;51.134;17.058;2023-05-29T04:58:54;8.33;;;5.53;;
2610;SDS011;5612;51.134;17.058;2023-05-29T05:01:25;8.97;;;5.27;;
2610;SDS011;5612;51.134;17.058;2023-05-29T05:03:55;6.60;;;6.00;;
2610;SDS011;5612;51.134;17.058;2023-05-29T05:06:27;5.73;;;5.23;;
2610;SDS011;5612;51.134;17.058;2023-05-29T05:08:56;6.80;;;5.10;;
2610;SDS011;5612;51.134;17.058;2023-05-29T05:11:25;7.40;;;4.90;;
2610;SDS011;5612;51.134;17.058;2023-05-29T05:13:54;7.67;;;5.70;;
2610;SDS011;5612;51.134;17.058;2023-05-29T05:16:23;5.63;;;4.60;;
2610;SDS011;5612;51.134;17.058;2023-05-29T05:18:52;9.47;;;4.70;;
2610;SDS011;5612;51.134;17.058;2023-05-29T05:21:22;6.70;;;5.47;;
2610;SDS011;5612;51.134;17.058;2023-05-29T05:23:53;7.40;;;5.33;;
2610;SDS011;5612;51.134;17.058;2023-05-29T05:26:24;5.33;;;4.83;;
2610;SDS011;5612;51.134;17.058;2023-05-29T05:28:54;7.53;;;5.07;;
2610;SDS011;5612;51.134;17.058;2023-05-29T05:31:23;6.40;;;4.83;;
2610;SDS011;5612;51.134;17.058;2023-05-29T05:33:53;6.77;;;5.07;;
2610;SDS011;5612;51.134;17.058;2023-05-29T05:36:22;11.43;;;5.50;;
2610;SDS011;5612;51.134;17.058;2023-05-29T05:38:51;5.77;;;4.70;;
2610;SDS011;5612;51.134;17.058;2023-05-29T05:41:21;5.60;;;5.10;;
2610;SDS011;5612;51.134;17.058;2023-05-29T05:43:52;11.23;;;5.40;;
2610;SDS011;5612;51.134;17.058;2023-05-29T05:46:20;5.27;;;4.30;;
2610;SDS011;5612;51.134;17.058;2023-05-29T05:48:53;4.40;;;4.00;;
2610;SDS011;5612;51.134;17.058;2023-05-29T05:51:23;6.93;;;5.00;;
2610;SDS011;5612;51.134;17.058;2023-05-29T05:53:55;4.60;;;4.20;;
2610;SDS011;5612;51.134;17.058;2023-05-29T05:56:25;6.83;;;4.60;;
2610;SDS011;5612;51.134;17.058;2023-05-29T05:58:55;6.23;;;4.00;;
2610;SDS011;5612;51.134;17.058;2023-05-29T06:01:24;6.50;;;4.70;;
2610;SDS011;5612;51.134;17.058;2023-05-29T06:03:54;7.20;;;4.63;;
2610;SDS011;5612;51.134;17.058;2023-05-29T06:06:24;4.33;;;4.00;;
2610;SDS011;5612;51.134;17.058;2023-05-29T06:08:56;4.90;;;3.80;;
2610;SDS011;5612;51.134;17.058;2023-05-29T06:11:25;6.43;;;4.03;;
2610;SDS011;5612;51.134;17.058;2023-05-29T06:13:54;6.53;;;4.10;;
2610;SDS011;5612;51.134;17.058;2023-05-29T06:16:23;6.13;;;4.33;;
2610;SDS011;5612;51.134;17.058;2023-05-29T06:18:52;7.20;;;4.10;;
2610;SDS011;5612;51.134;17.058;2023-05-29T06:21:21;5.97;;;4.30;;
2610;SDS011;5612;51.134;17.058;2023-05-29T06:23:51;4.00;;;3.50;;
2610;SDS011;5612;51.134;17.058;2023-05-29T06:26:21;6.93;;;3.40;;
2610;SDS011;5612;51.134;17.058;2023-05-29T06:28:51;6.50;;;4.00;;
2610;SDS011;5612;51.134;17.058;2023-05-29T06:31:21;5.43;;;4.37;;
2610;SDS011;5612;51.134;17.058;2023-05-29T06:33:53;3.53;;;3.03;;
2610;SDS011;5612;51.134;17.058;2023-05-29T06:36:23;6.83;;;3.43;;
2610;SDS011;5612;51.134;17.058;2023-05-29T06:38:52;5.00;;;3.07;;
2610;SDS011;5612;51.134;17.058;2023-05-29T06:41:22;6.03;;;3.33;;
2610;SDS011;5612;51.134;17.058;2023-05-29T06:43:51;4.07;;;3.30;;
2610;SDS011;5612;51.134;17.058;2023-05-29T06:46:20;5.53;;;3.67;;
2610;SDS011;5612;51.134;17.058;2023-05-29T06:48:49;3.70;;;3.17;;
2610;SDS011;5612;51.134;17.058;2023-05-29T06:51:18;4.60;;;3.43;;
2610;SDS011;5612;51.134;17.058;2023-05-29T06:53:48;3.90;;;2.97;;
2610;SDS011;5612;51.134;17.058;2023-05-29T06:56:20;4.73;;;2.63;;
2610;SDS011;5612;51.134;17.058;2023-05-29T06:58:50;3.40;;;3.10;;
2610;SDS011;5612;51.134;17.058;2023-05-29T07:01:20;5.20;;;3.50;;
2610;SDS011;5612;51.134;17.058;2023-05-29T07:03:57;3.27;;;3.00;;
2610;SDS011;5612;51.134;17.058;2023-05-29T07:06:35;3.37;;;2.90;;
2610;SDS011;5612;51.134;17.058;2023-05-29T07:09:14;2.83;;;2.40;;
2610;SDS011;5612;51.134;17.058;2023-05-29T07:11:48;3.37;;;2.70;;
2610;SDS011;5612;51.134;17.058;2023-05-29T07:14:23;3.17;;;2.83;;
2610;SDS011;5612;51.134;17.058;2023-05-29T07:16:52;5.13;;;3.23;;
2610;SDS011;5612;51.134;17.058;2023-05-29T07:19:23;4.27;;;3.03;;
2610;SDS011;5612;51.134;17.058;2023-05-29T07:21:58;2.97;;;2.77;;
2610;SDS011;5612;51.134;17.058;2023-05-29T07:24:29;4.10;;;3.13;;
2610;SDS011;5612;51.134;17.058;2023-05-29T07:27:06;6.90;;;2.70;;
2610;SDS011;5612;51.134;17.058;2023-05-29T07:29:38;3.50;;;3.13;;
2610;SDS011;5612;51.134;17.058;2023-05-29T07:32:11;4.37;;;2.23;;
2610;SDS011;5612;51.134;17.058;2023-05-29T07:34:44;3.40;;;3.10;;
2610;SDS011;5612;51.134;17.058;2023-05-29T07:37:26;3.58;;;2.40;;
2610;SDS011;5612;51.134;17.058;2023-05-29T07:40:07;2.33;;;2.13;;
2610;SDS011;5612;51.134;17.058;2023-05-29T07:42:44;2.10;;;2.00;;
2610;SDS011;5612;51.134;17.058;2023-05-29T07:45:25;2.20;;;2.10;;
2610;SDS011;5612;51.134;17.058;2023-05-29T07:47:58;5.85;;;2.45;;
2610;SDS011;5612;51.134;17.058;2023-05-29T07:50:33;2.55;;;2.35;;
2610;SDS011;5612;51.134;17.058;2023-05-29T07:53:13;2.53;;;2.03;;
2610;SDS011;5612;51.134;17.058;2023-05-29T07:55:58;6.93;;;2.45;;
2610;SDS011;5612;51.134;17.058;2023-05-29T07:58:34;2.53;;;2.33;;
2610;SDS011;5612;51.134;17.058;2023-05-29T08:01:14;2.60;;;2.40;;
2610;SDS011;5612;51.134;17.058;2023-05-29T08:03:53;3.42;;;2.03;;
2610;SDS011;5612;51.134;17.058;2023-05-29T08:06:34;2.25;;;1.98;;
2610;SDS011;5612;51.134;17.058;2023-05-29T08:09:13;3.13;;;2.50;;
2610;SDS011;5612;51.134;17.058;2023-05-29T08:11:54;2.72;;;2.53;;
2610;SDS011;5612;51.134;17.058;2023-05-29T08:14:31;5.03;;;2.50;;
2610;SDS011;5612;51.134;17.058;2023-05-29T08:17:11;2.78;;;2.58;;
2610;SDS011;5612;51.134;17.058;2023-05-29T08:19:45;2.45;;;2.25;;
2610;SDS011;5612;51.134;17.058;2023-05-29T08:22:27;1.92;;;1.70;;
2610;SDS011;5612;51.134;17.058;2023-05-29T08:25:04;1.60;;;1.50;;
2610;SDS011;5612;51.134;17.058;2023-05-29T08:27:39;1.88;;;1.63;;
2610;SDS011;5612;51.134;17.058;2023-05-29T08:30:21;1.67;;;1.58;;
2610;SDS011;5612;51.134;17.058;2023-05-29T08:33:04;2.67;;;2.15;;
2610;SDS011;5612;51.134;17.058;2023-05-29T08:35:42;1.60;;;1.50;;
2610;SDS011;5612;51.134;17.058;2023-05-29T08:38:14;2.38;;;2.17;;
2610;SDS011;5612;51.134;17.058;2023-05-29T08:40:48;5.75;;;1.85;;
2610;SDS011;5612;51.134;17.058;2023-05-29T08:43:20;1.60;;;1.50;;
2610;SDS011;5612;51.134;17.058;2023-05-29T08:45:58;7.30;;;2.55;;
2610;SDS011;5612;51.134;17.058;2023-05-29T08:48:46;2.08;;;1.98;;
2610;SDS011;5612;51.134;17.058;2023-05-29T08:51:30;3.88;;;2.05;;
2610;SDS011;5612;51.134;17.058;2023-05-29T08:54:14;3.22;;;1.67;;
2610;SDS011;5612;51.134;17.058;2023-05-29T08:56:45;1.63;;;1.52;;
2610;SDS011;5612;51.134;17.058;2023-05-29T08:59:24;4.38;;;1.80;;
2610;SDS011;5612;51.134;17.058;2023-05-29T09:02:02;1.75;;;1.65;;
2610;SDS011;5612;51.134;17.058;2023-05-29T09:04:44;2.30;;;1.70;;
2610;SDS011;5612;51.134;17.058;2023-05-29T09:07:31;2.00;;;1.80;;
2610;SDS011;5612;51.134;17.058;2023-05-29T09:10:14;2.05;;;1.80;;
2610;SDS011;5612;51.134;17.058;2023-05-29T09:12:51;4.40;;;1.88;;
2610;SDS011;5612;51.134;17.058;2023-05-29T09:15:24;2.85;;;2.03;;
2610;SDS011;5612;51.134;17.058;2023-05-29T09:18:01;2.22;;;1.80;;
2610;SDS011;5612;51.134;17.058;2023-05-29T09:20:49;4.05;;;2.20;;
2610;SDS011;5612;51.134;17.058;2023-05-29T09:23:27;5.25;;;2.55;;
2610;SDS011;5612;51.134;17.058;2023-05-29T09:26:10;1.90;;;1.80;;
2610;SDS011;5612;51.134;17.058;2023-05-29T09:29:05;2.60;;;1.80;;
2610;SDS011;5612;51.134;17.058;2023-05-29T09:31:46;3.50;;;2.80;;
2610;SDS011;5612;51.134;17.058;2023-05-29T09:34:24;2.72;;;2.20;;
2610;SDS011;5612;51.134;17.058;2023-05-29T09:37:04;2.42;;;2.20;;
2610;SDS011;5612;51.134;17.058;2023-05-29T09:39:51;2.45;;;2.17;;
2610;SDS011;5612;51.134;17.058;2023-05-29T09:42:33;2.55;;;2.33;;
2610;SDS011;5612;51.134;17.058;2023-05-29T09:45:42;5.70;;;2.15;;
2610;SDS011;5612;51.134;17.058;2023-05-29T09:48:23;2.53;;;2.38;;
2610;SDS011;5612;51.134;17.058;2023-05-29T09:51:04;2.50;;;2.30;;
2610;SDS011;5612;51.134;17.058;2023-05-29T09:53:56;2.58;;;2.47;;
2610;SDS011;5612;51.134;17.058;2023-05-29T09:56:34;2.08;;;1.98;;
2610;SDS011;5612;51.134;17.058;2023-05-29T09:59:09;2.03;;;1.92;;
2610;SDS011;5612;51.134;17.058;2023-05-29T10:01:54;2.78;;;2.58;;
2610;SDS011;5612;51.134;17.058;2023-05-29T10:04:38;2.17;;;1.98;;
2610;SDS011;5612;51.134;17.058;2023-05-29T10:07:22;3.03;;;2.30;;
2610;SDS011;5612;51.134;17.058;2023-05-29T10:10:04;3.45;;;2.25;;
2610;SDS011;5612;51.134;17.058;2023-05-29T10:12:36;3.60;;;2.20;;
2610;SDS011;5612;51.134;17.058;2023-05-29T10:15:08;2.80;;;2.60;;
2610;SDS011;5612;51.134;17.058;2023-05-29T10:17:43;3.30;;;2.47;;
2610;SDS011;5612;51.134;17.058;2023-05-29T10:20:19;4.07;;;1.90;;
2610;SDS011;5612;51.134;17.058;2023-05-29T10:22:51;2.60;;;2.38;;
2610;SDS011;5612;51.134;17.058;2023-05-29T10:25:32;2.95;;;2.42;;
2610;SDS011;5612;51.134;17.058;2023-05-29T10:28:02;2.08;;;1.90;;
2610;SDS011;5612;51.134;17.058;2023-05-29T10:30:34;2.70;;;2.47;;
2610;SDS011;5612;51.134;17.058;2023-05-29T10:33:16;2.10;;;2.00;;
2610;SDS011;5612;51.134;17.058;2023-05-29T10:36:03;2.40;;;2.30;;
2610;SDS011;5612;51.134;17.058;2023-05-29T10:38:40;2.33;;;2.22;;
2610;SDS011;5612;51.134;17.058;2023-05-29T10:41:37;3.70;;;2.38;;
2610;SDS011;5612;51.134;17.058;2023-05-29T10:47:23;2.42;;;2.22;;
2610;SDS011;5612;51.134;17.058;2023-05-29T10:50:01;1.77;;;1.67;;
2610;SDS011;5612;51.134;17.058;2023-05-29T10:52:42;2.35;;;2.25;;
2610;SDS011;5612;51.134;17.058;2023-05-29T10:55:23;2.47;;;2.25;;
2610;SDS011;5612;51.134;17.058;2023-05-29T10:58:14;2.25;;;2.13;;
2610;SDS011;5612;51.134;17.058;2023-05-29T11:00:55;2.75;;;2.55;;
2610;SDS011;5612;51.134;17.058;2023-05-29T11:03:31;2.10;;;2.00;;
2610;SDS011;5612;51.134;17.058;2023-05-29T11:06:18;2.15;;;1.85;;
2610;SDS011;5612;51.134;17.058;2023-05-29T11:08:52;2.75;;;1.98;;
2610;SDS011;5612;51.134;17.058;2023-05-29T11:11:31;5.65;;;2.25;;
2610;SDS011;5612;51.134;17.058;2023-05-29T11:14:04;2.15;;;2.05;;
2610;SDS011;5612;51.134;17.058;2023-05-29T11:16:37;4.28;;;2.10;;
2610;SDS011;5612;51.134;17.058;2023-05-29T11:19:07;2.78;;;2.03;;
2610;SDS011;5612;51.134;17.058;2023-05-29T11:21:46;3.70;;;1.83;;
2610;SDS011;5612;51.134;17.058;2023-05-29T11:24:24;2.33;;;2.22;;
2610;SDS011;5612;51.134;17.058;2023-05-29T11:26:55;2.38;;;2.28;;
2610;SDS011;5612;51.134;17.058;2023-05-29T11:29:32;2.38;;;2.20;;
2610;SDS011;5612;51.134;17.058;2023-05-29T11:32:02;3.20;;;2.60;;
2610;SDS011;5612;51.134;17.058;2023-05-29T11:34:32;2.38;;;2.17;;
2610;SDS011;5612;51.134;17.058;2023-05-29T11:37:02;3.85;;;2.10;;
2610;SDS011;5612;51.134;17.058;2023-05-29T11:39:35;2.67;;;2.47;;
2610;SDS011;5612;51.134;17.058;2023-05-29T11:42:05;3.22;;;1.73;;
2610;SDS011;5612;51.134;17.058;2023-05-29T11:44:36;5.22;;;2.70;;
2610;SDS011;5612;51.134;17.058;2023-05-29T11:47:06;2.20;;;2.10;;
2610;SDS011;5612;51.134;17.058;2023-05-29T11:49:36;3.33;;;3.13;;
2610;SDS011;5612;51.134;17.058;2023-05-29T11:52:06;2.42;;;2.30;;
2610;SDS011;5612;51.134;17.058;2023-05-29T11:54:42;2.97;;;2.28;;
2610;SDS011;5612;51.134;17.058;2023-05-29T11:57:17;3.60;;;2.53;;
2610;SDS011;5612;51.134;17.058;2023-05-29T11:59:57;2.85;;;2.60;;
2610;SDS011;5612;51.134;17.058;2023-05-29T12:02:30;2.20;;;2.10;;
2610;SDS011;5612;51.134;17.058;2023-05-29T12:05:01;3.22;;;2.03;;
2610;SDS011;5612;51.134;17.058;2023-05-29T12:07:32;3.95;;;2.78;;
2610;SDS011;5612;51.134;17.058;2023-05-29T12:10:10;3.33;;;2.38;;
2610;SDS011;5612;51.134;17.058;2023-05-29T12:12:40;4.05;;;2.45;;
2610;SDS011;5612;51.134;17.058;2023-05-29T12:15:11;3.00;;;2.42;;
2610;SDS011;5612;51.134;17.058;2023-05-29T12:17:40;2.63;;;2.42;;
2610;SDS011;5612;51.134;17.058;2023-05-29T12:20:11;3.85;;;3.20;;
2610;SDS011;5612;51.134;17.058;2023-05-29T12:22:42;2.60;;;2.40;;
2610;SDS011;5612;51.134;17.058;2023-05-29T12:25:14;2.25;;;2.00;;
2610;SDS011;5612;51.134;17.058;2023-05-29T12:27:46;3.40;;;2.00;;
2610;SDS011;5612;51.134;17.058;2023-05-29T12:30:21;2.20;;;2.00;;
2610;SDS011;5612;51.134;17.058;2023-05-29T12:32:59;2.35;;;2.15;;
2610;SDS011;5612;51.134;17.058;2023-05-29T12:35:29;3.55;;;3.28;;
2610;SDS011;5612;51.134;17.058;2023-05-29T12:37:58;8.00;;;2.50;;
2610;SDS011;5612;51.134;17.058;2023-05-29T12:40:29;4.28;;;2.28;;
2610;SDS011;5612;51.134;17.058;2023-05-29T12:43:00;5.70;;;1.90;;
2610;SDS011;5612;51.134;17.058;2023-05-29T12:45:32;2.35;;;2.15;;
2610;SDS011;5612;51.134;17.058;2023-05-29T12:48:02;2.83;;;2.10;;
2610;SDS011;5612;51.134;17.058;2023-05-29T12:50:33;3.88;;;2.33;;
2610;SDS011;5612;51.134;17.058;2023-05-29T12:53:04;2.63;;;2.42;;
2610;SDS011;5612;51.134;17.058;2023-05-29T12:55:35;3.20;;;2.72;;
2610;SDS011;5612;51.134;17.058;2023-05-29T12:58:06;2.05;;;1.85;;
2610;SDS011;5612;51.134;17.058;2023-05-29T13:00:37;4.03;;;2.58;;
2610;SDS011;5612;51.134;17.058;2023-05-29T13:03:07;5.22;;;2.72;;
2610;SDS011;5612;51.134;17.058;2023-05-29T13:05:38;2.75;;;2.63;;
2610;SDS011;5612;51.134;17.058;2023-05-29T13:08:07;3.30;;;2.55;;
2610;SDS011;5612;51.134;17.058;2023-05-29T13:10:36;3.70;;;2.45;;
2610;SDS011;5612;51.134;17.058;2023-05-29T13:13:05;3.47;;;2.72;;
2610;SDS011;5612;51.134;17.058;2023-05-29T13:15:38;2.50;;;2.30;;
2610;SDS011;5612;51.134;17.058;2023-05-29T13:18:07;4.28;;;3.08;;
2610;SDS011;5612;51.134;17.058;2023-05-29T13:20:36;3.65;;;2.47;;
2610;SDS011;5612;51.134;17.058;2023-05-29T13:23:05;2.88;;;2.40;;
2610;SDS011;5612;51.134;17.058;2023-05-29T13:25:35;2.38;;;2.22;;
2610;SDS011;5612;51.134;17.058;2023-05-29T13:28:05;2.67;;;2.47;;
2610;SDS011;5612;51.134;17.058;2023-05-29T13:30:34;2.72;;;2.53;;
2610;SDS011;5612;51.134;17.058;2023-05-29T13:33:05;11.32;;;3.42;;
2610;SDS011;5612;51.134;17.058;2023-05-29T13:35:34;2.38;;;2.15;;
2610;SDS011;5612;51.134;17.058;2023-05-29T13:38:03;3.97;;;2.67;;
2610;SDS011;5612;51.134;17.058;2023-05-29T13:40:32;2.15;;;1.92;;
2610;SDS011;5612;51.134;17.058;2023-05-29T13:43:01;2.63;;;2.40;;
2610;SDS011;5612;51.134;17.058;2023-05-29T13:45:30;2.88;;;2.47;;
2610;SDS011;5612;51.134;17.058;2023-05-29T13:47:59;2.97;;;2.50;;
2610;SDS011;5612;51.134;17.058;2023-05-29T13:50:29;2.45;;;2.20;;
2610;SDS011;5612;51.134;17.058;2023-05-29T13:52:58;2.58;;;2.30;;
2610;SDS011;5612;51.134;17.058;2023-05-29T13:55:28;3.38;;;3.13;;
2610;SDS011;5612;51.134;17.058;2023-05-29T13:57:57;3.08;;;2.88;;
2610;SDS011;5612;51.134;17.058;2023-05-29T14:00:28;2.72;;;2.53;;
2610;SDS011;5612;51.134;17.058;2023-05-29T14:02:57;1.98;;;1.88;;
2610;SDS011;5612;51.134;17.058;2023-05-29T14:05:26;3.13;;;2.65;;
2610;SDS011;5612;51.134;17.058;2023-05-29T14:07:57;22.02;;;3.63;;
2610;SDS011;5612;51.134;17.058;2023-05-29T14:10:27;2.78;;;2.47;;
2610;SDS011;5612;51.134;17.058;2023-05-29T14:12:56;3.25;;;3.00;;
2610;SDS011;5612;51.134;17.058;2023-05-29T14:15:26;4.20;;;2.45;;
2610;SDS011;5612;51.134;17.058;2023-05-29T14:17:55;3.60;;;2.45;;
2610;SDS011;5612;51.134;17.058;2023-05-29T14:20:24;4.18;;;2.45;;
2610;SDS011;5612;51.134;17.058;2023-05-29T14:22:54;2.47;;;2.20;;
2610;SDS011;5612;51.134;17.058;2023-05-29T14:25:24;3.15;;;2.95;;
2610;SDS011;5612;51.134;17.058;2023-05-29T14:27:53;2.97;;;2.67;;
2610;SDS011;5612;51.134;17.058;2023-05-29T14:30:22;2.78;;;2.58;;
2610;SDS011;5612;51.134;17.058;2023-05-29T14:32:51;2.67;;;2.45;;
2610;SDS011;5612;51.134;17.058;2023-05-29T14:35:20;3.00;;;2.80;;
2610;SDS011;5612;51.134;17.058;2023-05-29T14:37:49;2.00;;;1.90;;
2610;SDS011;5612;51.134;17.058;2023-05-29T14:40:20;2.85;;;2.50;;
2610;SDS011;5612;51.134;17.058;2023-05-29T14:42:49;2.90;;;2.67;;
2610;SDS011;5612;51.134;17.058;2023-05-29T14:45:18;3.10;;;2.83;;
2610;SDS011;5612;51.134;17.058;2023-05-29T14:47:47;3.30;;;3.00;;
2610;SDS011;5612;51.134;17.058;2023-05-29T14:50:17;2.60;;;2.40;;
2610;SDS011;5612;51.134;17.058;2023-05-29T14:52:47;3.13;;;2.83;;
2610;SDS011;5612;51.134;17.058;2023-05-29T14:55:16;10.83;;;3.60;;
2610;SDS011;5612;51.134;17.058;2023-05-29T14:57:48;6.97;;;4.60;;
2610;SDS011;5612;51.134;17.058;2023-05-29T15:00:23;2.80;;;2.60;;
2610;SDS011;5612;51.134;17.058;2023-05-29T15:03:02;4.30;;;3.73;;
2610;SDS011;5612;51.134;17.058;2023-05-29T15:05:38;7.90;;;3.97;;
2610;SDS011;5612;51.134;17.058;2023-05-29T15:08:15;4.60;;;3.87;;
2610;SDS011;5612;51.134;17.058;2023-05-29T15:10:51;6.33;;;4.40;;
2610;SDS011;5612;51.134;17.058;2023-05-29T15:13:38;4.00;;;3.60;;
2610;SDS011;5612;51.134;17.058;2023-05-29T15:16:17;4.90;;;3.03;;
2610;SDS011;5612;51.134;17.058;2023-05-29T15:18:55;5.80;;;4.80;;
2610;SDS011;5612;51.134;17.058;2023-05-29T15:21:36;3.93;;;2.90;;
2610;SDS011;5612;51.134;17.058;2023-05-29T15:24:22;4.67;;;3.47;;
2610;SDS011;5612;51.134;17.058;2023-05-29T15:27:00;3.80;;;3.30;;
2610;SDS011;5612;51.134;17.058;2023-05-29T15:29:41;5.27;;;4.10;;
2610;SDS011;5612;51.134;17.058;2023-05-29T15:32:26;3.97;;;3.57;;
2610;SDS011;5612;51.134;17.058;2023-05-29T15:35:05;6.67;;;3.73;;
2610;SDS011;5612;51.134;17.058;2023-05-29T15:37:52;4.63;;;3.60;;